Daejeon, South Korea

12:02 PM KST on May 26, 2015 (GMT +0900)
Chongju International | | Change Station
CLOSE
Current Station
Airport
Location: Cheongju AB,
Elevation: 190 ft
Nearby Weather Stations

Elev 190 ft 36.72 °N, 127.50 °E | Updated 1 hour ago

Clear
Clear
75 °F
Feels Like 75 °F
N
6
Wind Variable Wind from West

Today
High -- | Low -- °F
--% Chance of Precip.
Yesterday
High -- | Low -- °F
Precip. -- in
5:17 AM 7:37 PM
First Quarter, 54% visible
Pressure 29.89 in
Visibility 5.6 miles
Clouds
Dew Point 50 °F
Humidity 41%
Rainfall 0.00 in
Snow Depth Not available.
UV Not available.
Pollen Not available.
Air Quality Not available.
Flu Activity Not available.
METAR RKTU 260200Z 26005KT 9000 NSC 24/10 Q1012 NOSIG

More Conditions Fewer Conditions

Pressure 29.89 in
Visibility 5.6 miles
Clouds
Dew Point 50 °F
Humidity 41%
Rainfall 0.00 in
Snow Depth Not available.
UV Not available.
Pollen Not available.
Air Quality Not available.
Flu Activity Not available.
METAR RKTU 260200Z 26005KT 9000 NSC 24/10 Q1012 NOSIG

More Conditions Fewer Conditions

10-Day Weather Forecast

Almanac

Astronomy

May. 26, 2015 Rise Set
Actual Time
Civil Twilight
Nautical Twilight
Astronomical Twilight
Moon
Length of Visible Light
Length of Day
Tomorrow will be .
, % of the Moon is Illuminated

Today's Extremes

Country Highs Country Lows

Community

WunderPhotos

Upload Photos

1,824,245 photos uploaded!

WunderBlogs® & News

Nearby

Air Quality

  Air Quality AQ Index Pollutant
Not available.

Snow Depth

Station Depth Elevation

Earthquake Activity

City Distance Mag. Time & Date
Minimum magnitude displayed is 2.5.

Coastal Water Temperatures

Place Temperature

Stations

Nearby Weather Stations

Station Location Temp. Windchill Dew Point Humidity Wind Precip. Elev Updated Type